sensor_id;sensor_type;location;lat;lon;timestamp;P1;durP1;ratioP1;P2;durP2;ratioP2
30096;SDS011;16915;51.466;3.610;2023-02-02T00:01:23;24.95;;;4.30;;
30096;SDS011;16915;51.466;3.610;2023-02-02T00:03:50;19.67;;;3.50;;
30096;SDS011;16915;51.466;3.610;2023-02-02T00:06:16;18.42;;;3.10;;
30096;SDS011;16915;51.466;3.610;2023-02-02T00:08:46;23.38;;;2.65;;
30096;SDS011;16915;51.466;3.610;2023-02-02T00:11:13;28.35;;;3.03;;
30096;SDS011;16915;51.466;3.610;2023-02-02T00:13:39;15.05;;;2.67;;
30096;SDS011;16915;51.466;3.610;2023-02-02T00:18:55;19.80;;;2.90;;
30096;SDS011;16915;51.466;3.610;2023-02-02T00:21:25;19.58;;;3.10;;
30096;SDS011;16915;51.466;3.610;2023-02-02T00:23:51;24.05;;;2.58;;
30096;SDS011;16915;51.466;3.610;2023-02-02T00:26:17;22.98;;;3.00;;
30096;SDS011;16915;51.466;3.610;2023-02-02T00:28:44;20.10;;;3.70;;
30096;SDS011;16915;51.466;3.610;2023-02-02T00:31:10;23.25;;;2.90;;
30096;SDS011;16915;51.466;3.610;2023-02-02T00:33:36;24.95;;;3.15;;
30096;SDS011;16915;51.466;3.610;2023-02-02T00:36:02;25.52;;;2.70;;
30096;SDS011;16915;51.466;3.610;2023-02-02T00:38:28;20.17;;;2.80;;
30096;SDS011;16915;51.466;3.610;2023-02-02T00:40:54;19.20;;;2.63;;
30096;SDS011;16915;51.466;3.610;2023-02-02T00:43:20;21.98;;;2.63;;
30096;SDS011;16915;51.466;3.610;2023-02-02T00:45:45;20.60;;;3.17;;
30096;SDS011;16915;51.466;3.610;2023-02-02T00:48:12;21.35;;;3.20;;
30096;SDS011;16915;51.466;3.610;2023-02-02T00:50:37;20.35;;;3.15;;
30096;SDS011;16915;51.466;3.610;2023-02-02T00:53:03;28.27;;;2.88;;
30096;SDS011;16915;51.466;3.610;2023-02-02T00:55:28;13.93;;;3.05;;
30096;SDS011;16915;51.466;3.610;2023-02-02T00:57:54;29.25;;;3.00;;
30096;SDS011;16915;51.466;3.610;2023-02-02T01:00:21;18.90;;;2.80;;
30096;SDS011;16915;51.466;3.610;2023-02-02T01:02:52;21.50;;;3.60;;
30096;SDS011;16915;51.466;3.610;2023-02-02T01:05:18;18.27;;;2.38;;
30096;SDS011;16915;51.466;3.610;2023-02-02T01:07:44;22.48;;;2.65;;
30096;SDS011;16915;51.466;3.610;2023-02-02T01:10:15;21.65;;;3.47;;
30096;SDS011;16915;51.466;3.610;2023-02-02T01:12:43;14.43;;;2.42;;
30096;SDS011;16915;51.466;3.610;2023-02-02T01:15:09;23.48;;;2.90;;
30096;SDS011;16915;51.466;3.610;2023-02-02T01:17:36;19.75;;;2.40;;
30096;SDS011;16915;51.466;3.610;2023-02-02T01:20:02;11.32;;;2.47;;
30096;SDS011;16915;51.466;3.610;2023-02-02T01:22:28;19.52;;;2.65;;
30096;SDS011;16915;51.466;3.610;2023-02-02T01:24:54;14.23;;;2.55;;
30096;SDS011;16915;51.466;3.610;2023-02-02T01:27:20;20.48;;;3.15;;
30096;SDS011;16915;51.466;3.610;2023-02-02T01:29:45;28.92;;;2.70;;
30096;SDS011;16915;51.466;3.610;2023-02-02T01:32:11;18.50;;;2.72;;
30096;SDS011;16915;51.466;3.610;2023-02-02T01:34:36;20.60;;;3.00;;
30096;SDS011;16915;51.466;3.610;2023-02-02T01:37:06;23.20;;;2.67;;
30096;SDS011;16915;51.466;3.610;2023-02-02T01:39:32;24.42;;;3.35;;
30096;SDS011;16915;51.466;3.610;2023-02-02T01:41:58;22.08;;;3.00;;
30096;SDS011;16915;51.466;3.610;2023-02-02T01:47:21;20.10;;;2.83;;
30096;SDS011;16915;51.466;3.610;2023-02-02T01:49:49;23.92;;;3.08;;
30096;SDS011;16915;51.466;3.610;2023-02-02T01:52:17;19.15;;;2.47;;
30096;SDS011;16915;51.466;3.610;2023-02-02T01:54:47;14.88;;;2.38;;
30096;SDS011;16915;51.466;3.610;2023-02-02T01:57:29;21.83;;;3.40;;
30096;SDS011;16915;51.466;3.610;2023-02-02T02:00:02;19.20;;;2.53;;
30096;SDS011;16915;51.466;3.610;2023-02-02T02:02:30;13.13;;;2.40;;
30096;SDS011;16915;51.466;3.610;2023-02-02T02:04:56;23.58;;;3.13;;
30096;SDS011;16915;51.466;3.610;2023-02-02T02:07:25;13.43;;;2.95;;
30096;SDS011;16915;51.466;3.610;2023-02-02T02:09:51;18.77;;;2.33;;
30096;SDS011;16915;51.466;3.610;2023-02-02T02:12:16;17.45;;;2.58;;
30096;SDS011;16915;51.466;3.610;2023-02-02T02:14:44;18.42;;;3.33;;
30096;SDS011;16915;51.466;3.610;2023-02-02T02:17:35;16.90;;;2.65;;
30096;SDS011;16915;51.466;3.610;2023-02-02T02:40:24;15.85;;;2.75;;
30096;SDS011;16915;51.466;3.610;2023-02-02T02:42:55;22.20;;;2.60;;
30096;SDS011;16915;51.466;3.610;2023-02-02T02:45:25;25.90;;;3.00;;
30096;SDS011;16915;51.466;3.610;2023-02-02T02:47:53;20.30;;;3.10;;
30096;SDS011;16915;51.466;3.610;2023-02-02T02:50:20;20.13;;;2.72;;
30096;SDS011;16915;51.466;3.610;2023-02-02T02:52:46;20.85;;;2.80;;
30096;SDS011;16915;51.466;3.610;2023-02-02T02:55:18;28.65;;;3.20;;
30096;SDS011;16915;51.466;3.610;2023-02-02T02:57:54;19.67;;;2.65;;
30096;SDS011;16915;51.466;3.610;2023-02-02T03:06:37;18.63;;;3.05;;
30096;SDS011;16915;51.466;3.610;2023-02-02T03:09:20;27.42;;;2.60;;
30096;SDS011;16915;51.466;3.610;2023-02-02T03:11:49;21.27;;;3.07;;
30096;SDS011;16915;51.466;3.610;2023-02-02T03:14:15;20.15;;;2.30;;
30096;SDS011;16915;51.466;3.610;2023-02-02T03:16:40;27.90;;;2.53;;
30096;SDS011;16915;51.466;3.610;2023-02-02T03:19:06;20.20;;;3.15;;
30096;SDS011;16915;51.466;3.610;2023-02-02T03:21:32;21.35;;;2.47;;
30096;SDS011;16915;51.466;3.610;2023-02-02T03:23:58;22.33;;;2.70;;
30096;SDS011;16915;51.466;3.610;2023-02-02T03:26:24;26.60;;;2.85;;
30096;SDS011;16915;51.466;3.610;2023-02-02T03:28:52;15.52;;;2.40;;
30096;SDS011;16915;51.466;3.610;2023-02-02T03:31:19;19.30;;;3.10;;
30096;SDS011;16915;51.466;3.610;2023-02-02T03:33:44;23.42;;;2.38;;
30096;SDS011;16915;51.466;3.610;2023-02-02T03:36:10;21.52;;;2.92;;
30096;SDS011;16915;51.466;3.610;2023-02-02T03:38:36;22.63;;;3.80;;
30096;SDS011;16915;51.466;3.610;2023-02-02T03:41:01;18.33;;;2.20;;
30096;SDS011;16915;51.466;3.610;2023-02-02T03:43:27;26.88;;;2.80;;
30096;SDS011;16915;51.466;3.610;2023-02-02T03:46:02;19.42;;;2.63;;
30096;SDS011;16915;51.466;3.610;2023-02-02T03:48:29;18.63;;;2.38;;
30096;SDS011;16915;51.466;3.610;2023-02-02T03:50:55;15.55;;;2.38;;
30096;SDS011;16915;51.466;3.610;2023-02-02T03:53:21;16.50;;;2.20;;
30096;SDS011;16915;51.466;3.610;2023-02-02T03:55:47;27.45;;;2.83;;
30096;SDS011;16915;51.466;3.610;2023-02-02T03:58:13;23.42;;;2.97;;
30096;SDS011;16915;51.466;3.610;2023-02-02T04:00:39;14.45;;;2.78;;
30096;SDS011;16915;51.466;3.610;2023-02-02T04:03:04;19.15;;;2.53;;
30096;SDS011;16915;51.466;3.610;2023-02-02T04:05:30;16.17;;;2.58;;
30096;SDS011;16915;51.466;3.610;2023-02-02T04:07:55;17.35;;;2.75;;
30096;SDS011;16915;51.466;3.610;2023-02-02T04:10:21;26.55;;;2.97;;
30096;SDS011;16915;51.466;3.610;2023-02-02T04:12:46;24.00;;;2.90;;
30096;SDS011;16915;51.466;3.610;2023-02-02T04:15:12;28.88;;;3.05;;
30096;SDS011;16915;51.466;3.610;2023-02-02T04:17:38;16.83;;;2.78;;
30096;SDS011;16915;51.466;3.610;2023-02-02T04:20:04;21.08;;;2.28;;
30096;SDS011;16915;51.466;3.610;2023-02-02T04:22:29;14.80;;;2.97;;
30096;SDS011;16915;51.466;3.610;2023-02-02T04:24:55;27.13;;;2.58;;
30096;SDS011;16915;51.466;3.610;2023-02-02T04:27:21;28.25;;;3.00;;
30096;SDS011;16915;51.466;3.610;2023-02-02T04:29:46;20.90;;;2.60;;
30096;SDS011;16915;51.466;3.610;2023-02-02T04:32:13;26.88;;;3.00;;
30096;SDS011;16915;51.466;3.610;2023-02-02T04:34:40;22.70;;;2.42;;
30096;SDS011;16915;51.466;3.610;2023-02-02T04:37:06;22.55;;;3.08;;
30096;SDS011;16915;51.466;3.610;2023-02-02T04:39:32;27.38;;;3.78;;
30096;SDS011;16915;51.466;3.610;2023-02-02T04:41:57;22.73;;;2.95;;
30096;SDS011;16915;51.466;3.610;2023-02-02T04:44:23;19.02;;;2.35;;
30096;SDS011;16915;51.466;3.610;2023-02-02T04:46:48;20.48;;;2.25;;
30096;SDS011;16915;51.466;3.610;2023-02-02T04:49:14;18.83;;;2.25;;
30096;SDS011;16915;51.466;3.610;2023-02-02T04:51:39;13.70;;;2.20;;
30096;SDS011;16915;51.466;3.610;2023-02-02T04:54:05;13.50;;;1.80;;
30096;SDS011;16915;51.466;3.610;2023-02-02T04:56:32;10.65;;;2.13;;
30096;SDS011;16915;51.466;3.610;2023-02-02T04:58:58;13.60;;;1.92;;
30096;SDS011;16915;51.466;3.610;2023-02-02T05:01:24;9.90;;;2.15;;
30096;SDS011;16915;51.466;3.610;2023-02-02T05:03:50;19.05;;;2.08;;
30096;SDS011;16915;51.466;3.610;2023-02-02T05:06:16;14.52;;;2.40;;
30096;SDS011;16915;51.466;3.610;2023-02-02T05:08:43;19.05;;;2.33;;
30096;SDS011;16915;51.466;3.610;2023-02-02T05:11:10;19.65;;;2.28;;
30096;SDS011;16915;51.466;3.610;2023-02-02T05:13:38;15.43;;;2.33;;
30096;SDS011;16915;51.466;3.610;2023-02-02T05:16:04;15.75;;;2.00;;
30096;SDS011;16915;51.466;3.610;2023-02-02T05:18:31;16.45;;;1.80;;
30096;SDS011;16915;51.466;3.610;2023-02-02T05:21:00;14.02;;;2.15;;
30096;SDS011;16915;51.466;3.610;2023-02-02T05:23:26;19.63;;;2.25;;
30096;SDS011;16915;51.466;3.610;2023-02-02T05:25:52;17.63;;;2.17;;
30096;SDS011;16915;51.466;3.610;2023-02-02T05:28:18;20.25;;;2.65;;
30096;SDS011;16915;51.466;3.610;2023-02-02T05:30:45;17.65;;;2.20;;
30096;SDS011;16915;51.466;3.610;2023-02-02T05:33:10;19.13;;;2.38;;
30096;SDS011;16915;51.466;3.610;2023-02-02T05:35:36;10.65;;;2.13;;
30096;SDS011;16915;51.466;3.610;2023-02-02T05:38:02;12.35;;;1.88;;
30096;SDS011;16915;51.466;3.610;2023-02-02T05:40:28;14.80;;;2.33;;
30096;SDS011;16915;51.466;3.610;2023-02-02T05:42:53;17.73;;;2.42;;
30096;SDS011;16915;51.466;3.610;2023-02-02T05:45:19;18.27;;;2.33;;
30096;SDS011;16915;51.466;3.610;2023-02-02T05:47:44;15.60;;;1.73;;
30096;SDS011;16915;51.466;3.610;2023-02-02T05:50:10;15.30;;;2.28;;
30096;SDS011;16915;51.466;3.610;2023-02-02T05:52:36;19.35;;;2.60;;
30096;SDS011;16915;51.466;3.610;2023-02-02T05:55:04;21.58;;;2.83;;
30096;SDS011;16915;51.466;3.610;2023-02-02T05:57:29;13.70;;;2.03;;
30096;SDS011;16915;51.466;3.610;2023-02-02T05:59:55;16.35;;;2.40;;
30096;SDS011;16915;51.466;3.610;2023-02-02T06:02:21;19.88;;;2.55;;
30096;SDS011;16915;51.466;3.610;2023-02-02T06:04:46;22.80;;;2.45;;
30096;SDS011;16915;51.466;3.610;2023-02-02T06:07:12;21.20;;;2.88;;
30096;SDS011;16915;51.466;3.610;2023-02-02T06:09:37;20.52;;;2.70;;
30096;SDS011;16915;51.466;3.610;2023-02-02T06:12:03;16.35;;;2.22;;
30096;SDS011;16915;51.466;3.610;2023-02-02T06:14:29;17.20;;;2.50;;
30096;SDS011;16915;51.466;3.610;2023-02-02T06:16:55;15.93;;;2.70;;
30096;SDS011;16915;51.466;3.610;2023-02-02T06:19:21;21.23;;;3.13;;
30096;SDS011;16915;51.466;3.610;2023-02-02T06:21:46;24.20;;;2.65;;
30096;SDS011;16915;51.466;3.610;2023-02-02T06:24:12;22.55;;;2.55;;
30096;SDS011;16915;51.466;3.610;2023-02-02T06:26:38;16.95;;;2.80;;
30096;SDS011;16915;51.466;3.610;2023-02-02T06:29:03;16.38;;;3.00;;
30096;SDS011;16915;51.466;3.610;2023-02-02T06:31:29;22.92;;;2.55;;
30096;SDS011;16915;51.466;3.610;2023-02-02T06:33:56;15.25;;;2.33;;
30096;SDS011;16915;51.466;3.610;2023-02-02T06:36:23;13.32;;;1.90;;
30096;SDS011;16915;51.466;3.610;2023-02-02T06:38:50;22.48;;;2.80;;
30096;SDS011;16915;51.466;3.610;2023-02-02T06:41:17;18.17;;;2.22;;
30096;SDS011;16915;51.466;3.610;2023-02-02T06:43:44;16.13;;;1.67;;
30096;SDS011;16915;51.466;3.610;2023-02-02T06:46:10;11.70;;;2.10;;
30096;SDS011;16915;51.466;3.610;2023-02-02T06:48:36;15.10;;;2.40;;
30096;SDS011;16915;51.466;3.610;2023-02-02T06:51:01;22.63;;;2.00;;
30096;SDS011;16915;51.466;3.610;2023-02-02T06:53:29;12.27;;;1.77;;
30096;SDS011;16915;51.466;3.610;2023-02-02T06:55:56;25.73;;;3.03;;
30096;SDS011;16915;51.466;3.610;2023-02-02T06:58:26;19.30;;;2.80;;
30096;SDS011;16915;51.466;3.610;2023-02-02T07:00:52;17.08;;;2.75;;
30096;SDS011;16915;51.466;3.610;2023-02-02T07:03:18;24.98;;;2.40;;
30096;SDS011;16915;51.466;3.610;2023-02-02T07:05:48;23.10;;;2.75;;
30096;SDS011;16915;51.466;3.610;2023-02-02T07:08:14;26.15;;;2.95;;
30096;SDS011;16915;51.466;3.610;2023-02-02T07:10:39;21.65;;;2.80;;
30096;SDS011;16915;51.466;3.610;2023-02-02T07:13:06;22.85;;;3.22;;
30096;SDS011;16915;51.466;3.610;2023-02-02T07:15:32;24.13;;;2.33;;
30096;SDS011;16915;51.466;3.610;2023-02-02T07:17:58;19.08;;;2.47;;
30096;SDS011;16915;51.466;3.610;2023-02-02T07:20:24;21.75;;;2.42;;
30096;SDS011;16915;51.466;3.610;2023-02-02T07:22:50;17.40;;;2.70;;
30096;SDS011;16915;51.466;3.610;2023-02-02T07:25:15;17.50;;;2.25;;
30096;SDS011;16915;51.466;3.610;2023-02-02T07:27:41;27.23;;;3.13;;
30096;SDS011;16915;51.466;3.610;2023-02-02T07:30:07;21.10;;;3.22;;
30096;SDS011;16915;51.466;3.610;2023-02-02T07:32:33;16.05;;;1.95;;
30096;SDS011;16915;51.466;3.610;2023-02-02T07:34:59;17.00;;;1.98;;
30096;SDS011;16915;51.466;3.610;2023-02-02T07:37:24;16.00;;;2.00;;
30096;SDS011;16915;51.466;3.610;2023-02-02T07:39:50;21.30;;;2.38;;
30096;SDS011;16915;51.466;3.610;2023-02-02T07:42:15;15.52;;;2.00;;
30096;SDS011;16915;51.466;3.610;2023-02-02T07:44:41;27.02;;;2.90;;
30096;SDS011;16915;51.466;3.610;2023-02-02T07:47:06;27.15;;;2.95;;
30096;SDS011;16915;51.466;3.610;2023-02-02T07:49:32;16.38;;;1.95;;
30096;SDS011;16915;51.466;3.610;2023-02-02T07:51:57;20.77;;;2.63;;
30096;SDS011;16915;51.466;3.610;2023-02-02T07:54:23;15.20;;;1.90;;
30096;SDS011;16915;51.466;3.610;2023-02-02T07:56:48;17.77;;;2.55;;
30096;SDS011;16915;51.466;3.610;2023-02-02T07:59:14;14.45;;;1.80;;
30096;SDS011;16915;51.466;3.610;2023-02-02T08:01:40;20.02;;;4.05;;
30096;SDS011;16915;51.466;3.610;2023-02-02T08:04:05;20.48;;;2.83;;
30096;SDS011;16915;51.466;3.610;2023-02-02T08:06:32;29.88;;;3.15;;
30096;SDS011;16915;51.466;3.610;2023-02-02T08:08:59;13.90;;;2.13;;
30096;SDS011;16915;51.466;3.610;2023-02-02T08:11:25;15.40;;;2.40;;
30096;SDS011;16915;51.466;3.610;2023-02-02T08:13:53;15.40;;;3.03;;
30096;SDS011;16915;51.466;3.610;2023-02-02T08:16:23;29.98;;;3.20;;
30096;SDS011;16915;51.466;3.610;2023-02-02T08:18:50;27.85;;;3.35;;
30096;SDS011;16915;51.466;3.610;2023-02-02T08:21:16;22.40;;;3.80;;
30096;SDS011;16915;51.466;3.610;2023-02-02T08:23:43;19.00;;;2.58;;
30096;SDS011;16915;51.466;3.610;2023-02-02T08:26:23;19.33;;;2.75;;
30096;SDS011;16915;51.466;3.610;2023-02-02T08:28:51;23.73;;;3.07;;
30096;SDS011;16915;51.466;3.610;2023-02-02T08:31:26;21.40;;;2.60;;
30096;SDS011;16915;51.466;3.610;2023-02-02T08:33:57;13.18;;;2.33;;
30096;SDS011;16915;51.466;3.610;2023-02-02T08:36:23;20.75;;;2.45;;
30096;SDS011;16915;51.466;3.610;2023-02-02T08:38:50;26.75;;;2.75;;
30096;SDS011;16915;51.466;3.610;2023-02-02T08:41:17;26.33;;;2.70;;
30096;SDS011;16915;51.466;3.610;2023-02-02T08:43:44;21.13;;;2.45;;
30096;SDS011;16915;51.466;3.610;2023-02-02T08:46:11;16.85;;;2.50;;
30096;SDS011;16915;51.466;3.610;2023-02-02T08:48:37;16.50;;;2.25;;
30096;SDS011;16915;51.466;3.610;2023-02-02T08:51:03;17.15;;;2.72;;
30096;SDS011;16915;51.466;3.610;2023-02-02T08:53:31;20.33;;;2.80;;
30096;SDS011;16915;51.466;3.610;2023-02-02T08:56:04;23.17;;;3.35;;
30096;SDS011;16915;51.466;3.610;2023-02-02T08:58:30;23.90;;;2.47;;
30096;SDS011;16915;51.466;3.610;2023-02-02T09:01:14;27.80;;;3.00;;
30096;SDS011;16915;51.466;3.610;2023-02-02T09:03:47;15.63;;;3.70;;
30096;SDS011;16915;51.466;3.610;2023-02-02T09:06:16;29.48;;;3.22;;
30096;SDS011;16915;51.466;3.610;2023-02-02T09:08:43;12.23;;;1.83;;
30096;SDS011;16915;51.466;3.610;2023-02-02T09:11:11;20.50;;;2.78;;
30096;SDS011;16915;51.466;3.610;2023-02-02T09:13:39;24.23;;;2.88;;
30096;SDS011;16915;51.466;3.610;2023-02-02T09:16:06;18.75;;;2.72;;
30096;SDS011;16915;51.466;3.610;2023-02-02T09:18:34;22.80;;;3.22;;
30096;SDS011;16915;51.466;3.610;2023-02-02T09:21:03;16.30;;;2.40;;
30096;SDS011;16915;51.466;3.610;2023-02-02T09:23:31;24.33;;;2.72;;
30096;SDS011;16915;51.466;3.610;2023-02-02T09:26:11;23.33;;;2.22;;
30096;SDS011;16915;51.466;3.610;2023-02-02T09:28:58;19.95;;;2.47;;
30096;SDS011;16915;51.466;3.610;2023-02-02T09:31:27;25.42;;;3.65;;
30096;SDS011;16915;51.466;3.610;2023-02-02T09:33:53;27.73;;;3.05;;
30096;SDS011;16915;51.466;3.610;2023-02-02T09:36:22;27.05;;;2.45;;
30096;SDS011;16915;51.466;3.610;2023-02-02T09:38:48;22.17;;;2.30;;
30096;SDS011;16915;51.466;3.610;2023-02-02T09:43:47;24.95;;;3.20;;
30096;SDS011;16915;51.466;3.610;2023-02-02T09:46:44;27.73;;;3.55;;
30096;SDS011;16915;51.466;3.610;2023-02-02T09:49:13;23.98;;;3.00;;
30096;SDS011;16915;51.466;3.610;2023-02-02T09:52:02;17.98;;;3.17;;
30096;SDS011;16915;51.466;3.610;2023-02-02T09:54:42;14.30;;;2.10;;
30096;SDS011;16915;51.466;3.610;2023-02-02T09:57:35;20.95;;;2.70;;
30096;SDS011;16915;51.466;3.610;2023-02-02T10:00:01;16.73;;;2.35;;
30096;SDS011;16915;51.466;3.610;2023-02-02T10:02:38;22.42;;;2.17;;
30096;SDS011;16915;51.466;3.610;2023-02-02T10:05:14;25.73;;;2.97;;
30096;SDS011;16915;51.466;3.610;2023-02-02T10:07:45;19.20;;;2.45;;
30096;SDS011;16915;51.466;3.610;2023-02-02T10:10:28;16.20;;;2.60;;
30096;SDS011;16915;51.466;3.610;2023-02-02T10:13:00;20.35;;;2.53;;
30096;SDS011;16915;51.466;3.610;2023-02-02T10:23:35;17.92;;;2.40;;
30096;SDS011;16915;51.466;3.610;2023-02-02T10:26:06;16.13;;;2.60;;
30096;SDS011;16915;51.466;3.610;2023-02-02T10:28:37;20.15;;;2.85;;
30096;SDS011;16915;51.466;3.610;2023-02-02T10:31:10;14.20;;;1.80;;
30096;SDS011;16915;51.466;3.610;2023-02-02T10:33:48;15.10;;;1.90;;
30096;SDS011;16915;51.466;3.610;2023-02-02T10:39:29;17.27;;;1.65;;
30096;SDS011;16915;51.466;3.610;2023-02-02T10:45:18;18.90;;;2.38;;
30096;SDS011;16915;51.466;3.610;2023-02-02T10:47:45;19.23;;;2.58;;
30096;SDS011;16915;51.466;3.610;2023-02-02T10:52:36;14.55;;;2.03;;
30096;SDS011;16915;51.466;3.610;2023-02-02T11:00:27;16.63;;;2.13;;
30096;SDS011;16915;51.466;3.610;2023-02-02T11:03:10;13.05;;;2.35;;
30096;SDS011;16915;51.466;3.610;2023-02-02T11:05:38;17.50;;;3.05;;
30096;SDS011;16915;51.466;3.610;2023-02-02T11:08:42;22.02;;;2.60;;
30096;SDS011;16915;51.466;3.610;2023-02-02T11:11:25;19.63;;;2.22;;
30096;SDS011;16915;51.466;3.610;2023-02-02T11:13:58;12.77;;;2.22;;
30096;SDS011;16915;51.466;3.610;2023-02-02T11:16:31;24.98;;;2.80;;
30096;SDS011;16915;51.466;3.610;2023-02-02T11:18:57;14.23;;;2.35;;
30096;SDS011;16915;51.466;3.610;2023-02-02T11:23:58;13.45;;;1.98;;
30096;SDS011;16915;51.466;3.610;2023-02-02T11:26:25;16.63;;;2.17;;
30096;SDS011;16915;51.466;3.610;2023-02-02T11:29:03;18.83;;;2.13;;
30096;SDS011;16915;51.466;3.610;2023-02-02T11:31:33;15.65;;;2.47;;
30096;SDS011;16915;51.466;3.610;2023-02-02T11:34:14;13.85;;;1.83;;
30096;SDS011;16915;51.466;3.610;2023-02-02T11:39:37;11.30;;;1.92;;
30096;SDS011;16915;51.466;3.610;2023-02-02T11:42:05;12.55;;;2.30;;
30096;SDS011;16915;51.466;3.610;2023-02-02T11:44:42;11.98;;;2.33;;
30096;SDS011;16915;51.466;3.610;2023-02-02T11:47:16;15.45;;;2.00;;
30096;SDS011;16915;51.466;3.610;2023-02-02T11:49:49;14.55;;;2.17;;
30096;SDS011;16915;51.466;3.610;2023-02-02T11:52:20;9.23;;;1.65;;
30096;SDS011;16915;51.466;3.610;2023-02-02T11:54:51;12.52;;;1.52;;
30096;SDS011;16915;51.466;3.610;2023-02-02T11:57:21;15.63;;;2.28;;
30096;SDS011;16915;51.466;3.610;2023-02-02T12:00:34;7.07;;;1.65;;
30096;SDS011;16915;51.466;3.610;2023-02-02T12:02:34;12.90;;;1.80;;
30096;SDS011;16915;51.466;3.610;2023-02-02T12:07:34;17.20;;;2.30;;
30096;SDS011;16915;51.466;3.610;2023-02-02T12:10:10;13.57;;;1.88;;
30096;SDS011;16915;51.466;3.610;2023-02-02T12:13:04;9.40;;;1.42;;
30096;SDS011;16915;51.466;3.610;2023-02-02T12:26:27;8.02;;;1.67;;
30096;SDS011;16915;51.466;3.610;2023-02-02T12:35:10;19.23;;;1.98;;
30096;SDS011;16915;51.466;3.610;2023-02-02T12:37:58;14.73;;;2.15;;
30096;SDS011;16915;51.466;3.610;2023-02-02T12:43:40;17.15;;;1.70;;
30096;SDS011;16915;51.466;3.610;2023-02-02T12:51:40;9.55;;;1.75;;
30096;SDS011;16915;51.466;3.610;2023-02-02T12:56:44;7.93;;;1.88;;
30096;SDS011;16915;51.466;3.610;2023-02-02T13:02:02;11.90;;;1.90;;
30096;SDS011;16915;51.466;3.610;2023-02-02T13:10:12;16.40;;;2.30;;
30096;SDS011;16915;51.466;3.610;2023-02-02T13:15:33;15.95;;;1.85;;
30096;SDS011;16915;51.466;3.610;2023-02-02T13:18:22;8.52;;;1.80;;
30096;SDS011;16915;51.466;3.610;2023-02-02T13:21:02;13.10;;;1.92;;
30096;SDS011;16915;51.466;3.610;2023-02-02T13:23:36;12.75;;;2.03;;
30096;SDS011;16915;51.466;3.610;2023-02-02T13:26:21;8.27;;;1.92;;
30096;SDS011;16915;51.466;3.610;2023-02-02T13:29:26;13.27;;;1.98;;
30096;SDS011;16915;51.466;3.610;2023-02-02T13:34:44;9.23;;;1.83;;
30096;SDS011;16915;51.466;3.610;2023-02-02T13:42:48;13.10;;;1.70;;
30096;SDS011;16915;51.466;3.610;2023-02-02T13:45:38;8.43;;;1.95;;
30096;SDS011;16915;51.466;3.610;2023-02-02T13:51:03;6.10;;;1.60;;
30096;SDS011;16915;51.466;3.610;2023-02-02T14:02:01;13.68;;;1.65;;
30096;SDS011;16915;51.466;3.610;2023-02-02T14:04:31;7.40;;;1.67;;
30096;SDS011;16915;51.466;3.610;2023-02-02T14:07:04;10.15;;;1.45;;
30096;SDS011;16915;51.466;3.610;2023-02-02T14:09:31;15.02;;;1.90;;
30096;SDS011;16915;51.466;3.610;2023-02-02T14:12:06;13.40;;;1.70;;
30096;SDS011;16915;51.466;3.610;2023-02-02T14:14:35;11.30;;;1.63;;
30096;SDS011;16915;51.466;3.610;2023-02-02T14:19:53;15.75;;;1.75;;
30096;SDS011;16915;51.466;3.610;2023-02-02T14:27:56;6.32;;;1.55;;
30096;SDS011;16915;51.466;3.610;2023-02-02T14:30:27;14.25;;;1.73;;
30096;SDS011;16915;51.466;3.610;2023-02-02T14:35:55;12.05;;;1.40;;
30096;SDS011;16915;51.466;3.610;2023-02-02T14:41:19;8.02;;;1.27;;
30096;SDS011;16915;51.466;3.610;2023-02-02T14:44:27;5.68;;;1.48;;
30096;SDS011;16915;51.466;3.610;2023-02-02T14:46:54;10.93;;;1.40;;
30096;SDS011;16915;51.466;3.610;2023-02-02T14:49:21;13.80;;;1.58;;
30096;SDS011;16915;51.466;3.610;2023-02-02T14:51:54;9.50;;;1.30;;
30096;SDS011;16915;51.466;3.610;2023-02-02T14:54:27;13.23;;;1.50;;
30096;SDS011;16915;51.466;3.610;2023-02-02T14:57:02;10.65;;;1.40;;
30096;SDS011;16915;51.466;3.610;2023-02-02T14:59:44;6.95;;;1.65;;
30096;SDS011;16915;51.466;3.610;2023-02-02T15:13:17;10.43;;;1.40;;
30096;SDS011;16915;51.466;3.610;2023-02-02T15:15:46;10.75;;;1.35;;
30096;SDS011;16915;51.466;3.610;2023-02-02T15:18:19;11.38;;;1.63;;
30096;SDS011;16915;51.466;3.610;2023-02-02T15:20:57;9.70;;;2.10;;
30096;SDS011;16915;51.466;3.610;2023-02-02T15:23:39;7.03;;;1.63;;
30096;SDS011;16915;51.466;3.610;2023-02-02T15:26:11;14.63;;;1.73;;
30096;SDS011;16915;51.466;3.610;2023-02-02T15:34:16;10.10;;;1.60;;
30096;SDS011;16915;51.466;3.610;2023-02-02T15:36:47;8.20;;;1.40;;
30096;SDS011;16915;51.466;3.610;2023-02-02T15:39:22;9.73;;;1.50;;
30096;SDS011;16915;51.466;3.610;2023-02-02T15:42:01;14.38;;;1.55;;
30096;SDS011;16915;51.466;3.610;2023-02-02T15:44:49;10.95;;;1.17;;
30096;SDS011;16915;51.466;3.610;2023-02-02T15:47:16;11.63;;;1.58;;
30096;SDS011;16915;51.466;3.610;2023-02-02T15:49:44;8.52;;;1.80;;
30096;SDS011;16915;51.466;3.610;2023-02-02T15:52:12;11.27;;;1.88;;
30096;SDS011;16915;51.466;3.610;2023-02-02T15:57:28;7.13;;;1.42;;
30096;SDS011;16915;51.466;3.610;2023-02-02T15:59:59;9.75;;;2.15;;
30096;SDS011;16915;51.466;3.610;2023-02-02T16:02:45;11.00;;;2.08;;
30096;SDS011;16915;51.466;3.610;2023-02-02T16:07:56;10.50;;;1.43;;
30096;SDS011;16915;51.466;3.610;2023-02-02T16:10:23;10.40;;;1.73;;
30096;SDS011;16915;51.466;3.610;2023-02-02T16:12:49;17.80;;;2.70;;
30096;SDS011;16915;51.466;3.610;2023-02-02T16:15:23;16.80;;;1.85;;
30096;SDS011;16915;51.466;3.610;2023-02-02T16:18:00;12.90;;;1.75;;
30096;SDS011;16915;51.466;3.610;2023-02-02T16:20:30;14.20;;;1.80;;
30096;SDS011;16915;51.466;3.610;2023-02-02T16:22:58;9.20;;;1.90;;
30096;SDS011;16915;51.466;3.610;2023-02-02T16:25:26;15.35;;;2.40;;
30096;SDS011;16915;51.466;3.610;2023-02-02T16:27:56;10.95;;;2.15;;
30096;SDS011;16915;51.466;3.610;2023-02-02T16:32:51;13.43;;;1.95;;
30096;SDS011;16915;51.466;3.610;2023-02-02T16:38:10;9.43;;;1.70;;
30096;SDS011;16915;51.466;3.610;2023-02-02T16:40:48;16.90;;;2.13;;
30096;SDS011;16915;51.466;3.610;2023-02-02T16:43:28;14.88;;;2.15;;
30096;SDS011;16915;51.466;3.610;2023-02-02T16:45:55;14.82;;;2.28;;
30096;SDS011;16915;51.466;3.610;2023-02-02T16:48:34;16.20;;;1.90;;
30096;SDS011;16915;51.466;3.610;2023-02-02T16:53:35;13.52;;;2.38;;
30096;SDS011;16915;51.466;3.610;2023-02-02T16:56:03;13.60;;;1.92;;
30096;SDS011;16915;51.466;3.610;2023-02-02T16:58:29;11.30;;;1.60;;
30096;SDS011;16915;51.466;3.610;2023-02-02T17:03:22;16.27;;;2.38;;
30096;SDS011;16915;51.466;3.610;2023-02-02T17:05:52;8.88;;;2.05;;
30096;SDS011;16915;51.466;3.610;2023-02-02T17:08:25;14.68;;;1.73;;
30096;SDS011;16915;51.466;3.610;2023-02-02T17:11:01;15.07;;;2.38;;
30096;SDS011;16915;51.466;3.610;2023-02-02T17:13:57;9.27;;;2.15;;
30096;SDS011;16915;51.466;3.610;2023-02-02T17:16:41;9.15;;;1.92;;
30096;SDS011;16915;51.466;3.610;2023-02-02T17:19:07;10.25;;;1.90;;
30096;SDS011;16915;51.466;3.610;2023-02-02T17:21:33;11.40;;;1.80;;
30096;SDS011;16915;51.466;3.610;2023-02-02T17:23:59;15.30;;;2.00;;
30096;SDS011;16915;51.466;3.610;2023-02-02T17:26:25;16.50;;;2.40;;
30096;SDS011;16915;51.466;3.610;2023-02-02T17:28:53;16.95;;;2.35;;
30096;SDS011;16915;51.466;3.610;2023-02-02T17:31:20;12.73;;;2.30;;
30096;SDS011;16915;51.466;3.610;2023-02-02T17:33:46;12.90;;;2.40;;
30096;SDS011;16915;51.466;3.610;2023-02-02T17:36:11;15.45;;;2.88;;
30096;SDS011;16915;51.466;3.610;2023-02-02T17:38:37;10.38;;;2.05;;
30096;SDS011;16915;51.466;3.610;2023-02-02T17:41:03;20.23;;;3.05;;